createdAt,value
2019-05-17T00:31:21.818Z,100007.77
2019-05-17T00:49:03.175Z,99980.64
2019-05-17T00:51:36.954Z,99994.34
2019-05-17T00:57:09.105Z,99982.00
2019-05-17T01:06:56.585Z,99979.61
2019-05-17T01:13:58.661Z,99965.50
2019-05-17T01:20:47.517Z,99962.72
2019-05-17T01:29:06.717Z,99958.81
2019-05-17T01:37:56.764Z,99968.19
2019-05-17T01:50:33.851Z,99958.50
2019-05-17T02:00:37.688Z,99932.12
2019-05-17T02:04:57.691Z,99926.06
2019-05-17T02:17:11.034Z,99913.74
2019-05-17T02:19:47.075Z,99912.98
2019-05-17T02:23:07.666Z,99907.51
2019-05-17T02:30:07.863Z,99897.87
2019-05-17T02:34:14.289Z,99901.66
2019-05-17T02:41:35.229Z,99903.23
2019-05-17T02:44:53.302Z,99901.47
2019-05-17T02:48:29.520Z,99897.71
2019-05-17T03:40:46.344Z,99893.98
2019-05-17T03:47:03.960Z,99891.02
2019-05-17T03:50:53.306Z,99889.58
2019-05-17T03:59:03.928Z,99893.42
2019-05-17T04:02:16.238Z,99894.42
2019-05-17T04:06:18.645Z,99891.30
2019-05-17T04:10:07.302Z,99889.19
2019-05-17T04:12:04.718Z,99888.27
2019-05-17T04:31:34.964Z,99895.61
2019-05-17T04:41:54.355Z,99897.70
2019-05-17T04:57:52.937Z,99895.96
2019-05-17T05:28:16.975Z,99876.69
2019-05-17T05:48:14.443Z,99862.06
2019-05-17T06:18:02.961Z,99858.51
2019-05-17T06:24:06.274Z,99858.02
2019-05-17T06:35:43.229Z,99849.56
2019-05-17T06:45:47.403Z,99845.14
2019-05-17T06:55:53.588Z,99839.55
2019-05-17T06:59:18.847Z,99844.57
2019-05-17T07:03:00.510Z,99840.84
2019-05-17T07:06:41.582Z,99838.93
2019-05-17T07:10:15.679Z,99838.89
2019-05-17T07:17:19.709Z,99832.99
2019-05-17T07:28:09.994Z,99832.48
2019-05-17T07:32:23.993Z,99833.55
2019-05-17T07:47:20.143Z,99832.25
2019-05-17T07:50:50.200Z,99833.47
2019-05-17T07:53:34.698Z,99825.36
2019-05-17T07:56:05.990Z,99821.52
2019-05-17T07:59:41.122Z,99837.73
2019-05-17T08:02:56.808Z,99832.84
2019-05-17T08:05:44.476Z,99824.99
2019-05-17T08:16:03.296Z,99812.10
2019-05-17T08:25:21.675Z,99799.41
2019-05-17T08:29:20.256Z,99798.22
2019-05-17T08:43:22.537Z,99793.80
2019-05-17T08:50:11.202Z,99782.74
2019-05-17T08:53:06.583Z,99775.39
2019-05-17T08:57:20.244Z,99769.94
2019-05-17T09:00:02.088Z,99767.34
2019-05-17T09:14:11.730Z,99757.58
2019-05-17T09:17:31.618Z,99758.54
2019-05-17T09:25:49.909Z,99744.47
2019-05-17T09:35:49.900Z,99726.50
2019-05-17T09:43:02.140Z,99727.25
2019-05-17T09:46:41.385Z,99719.95
2019-05-17T09:54:06.849Z,99711.67
2019-05-17T09:58:13.335Z,99711.66
2019-05-17T10:05:53.076Z,99703.36
2019-05-17T10:10:10.119Z,99701.81
2019-05-17T10:24:09.823Z,99688.28
2019-05-17T10:31:31.109Z,99687.33
2019-05-17T10:35:22.879Z,99685.73
2019-05-17T10:40:06.686Z,99686.48
2019-05-17T10:49:29.522Z,99671.67
2019-05-17T10:57:15.403Z,99676.88
2019-05-17T11:08:41.242Z,99673.75
2019-05-17T11:11:10.965Z,99660.66
2019-05-17T11:14:55.920Z,99654.72
2019-05-17T11:17:33.241Z,99655.16
2019-05-17T11:24:59.982Z,99648.22
2019-05-17T11:28:36.240Z,99651.84
2019-05-17T11:32:01.996Z,99655.53
2019-05-17T11:34:52.241Z,99650.02
2019-05-17T11:37:42.152Z,99647.48
2019-05-17T11:41:25.992Z,99658.97
2019-05-17T11:45:32.742Z,99647.88
2019-05-17T11:53:35.197Z,99645.56
2019-05-17T12:07:21.170Z,99641.23
2019-05-17T12:13:59.420Z,99629.88
2019-05-17T12:17:16.620Z,99637.67
2019-05-17T12:30:04.708Z,99619.67
2019-05-17T12:32:53.921Z,99623.91
2019-05-17T12:35:34.245Z,99615.70
2019-05-17T12:39:30.589Z,99615.70
2019-05-17T12:44:02.459Z,99607.08
2019-05-17T12:51:44.992Z,99611.57
2019-05-17T12:55:31.326Z,99619.39
2019-05-17T13:01:54.701Z,99605.27
2019-05-17T13:04:42.301Z,99603.24
2019-05-17T13:08:09.323Z,99601.81
2019-05-17T13:10:08.934Z,99593.41
2019-05-17T13:13:32.314Z,99594.05
2019-05-17T13:16:37.232Z,99590.30
2019-05-17T13:19:40.360Z,99599.20
2019-05-17T13:23:05.580Z,99599.77
2019-05-17T13:25:48.039Z,99587.58
2019-05-17T13:28:15.087Z,99583.67
2019-05-17T13:30:45.400Z,99582.31
2019-05-17T13:33:46.777Z,99579.70
2019-05-17T13:37:00.247Z,99582.13
2019-05-17T13:39:56.964Z,99579.22
2019-05-17T13:42:44.772Z,99582.09
2019-05-17T13:45:20.032Z,99577.21
2019-05-17T13:48:22.491Z,99575.48
2019-05-17T13:51:24.751Z,99577.30
2019-05-17T13:54:12.736Z,99570.19
2019-05-17T13:56:41.857Z,99566.43
2019-05-17T13:59:38.942Z,99564.55
2019-05-17T14:02:13.207Z,99573.10
2019-05-17T14:05:13.554Z,99559.66
2019-05-17T14:08:05.768Z,99553.63
2019-05-17T14:10:50.765Z,99555.88
2019-05-17T14:14:18.666Z,99555.25
2019-05-17T14:16:54.284Z,99552.98
2019-05-17T14:19:55.075Z,99554.41
2019-05-17T14:22:51.116Z,99545.94
2019-05-17T14:25:40.621Z,99549.72
2019-05-17T14:28:23.098Z,99548.36
2019-05-17T14:31:10.965Z,99534.91
2019-05-17T14:37:29.810Z,99537.53
2019-05-17T14:40:16.336Z,99536.77
2019-05-17T14:43:17.887Z,99535.09
2019-05-17T14:45:54.223Z,99538.92
2019-05-17T14:48:45.069Z,99534.30
2019-05-17T14:51:14.479Z,99531.32
2019-05-17T14:53:56.482Z,99534.00
2019-05-17T14:56:31.748Z,99532.31
2019-05-17T14:59:11.214Z,99530.13
2019-05-17T15:01:54.468Z,99524.45
2019-05-17T15:04:50.112Z,99524.66
2019-05-17T15:07:21.037Z,99527.33
2019-05-17T15:10:02.361Z,99527.73
2019-05-17T15:12:53.728Z,99526.09
2019-05-17T15:15:37.622Z,99530.23
2019-05-17T15:18:09.806Z,99519.77
2019-05-17T15:20:48.560Z,99521.74
2019-05-17T15:23:24.875Z,99516.94
2019-05-17T15:26:28.222Z,99512.13
2019-05-17T15:28:58.505Z,99513.83
2019-05-17T15:31:43.392Z,99511.91
2019-05-17T15:34:27.477Z,99509.46
2019-05-17T15:37:05.213Z,99513.08
2019-05-17T15:39:48.234Z,99504.22
2019-05-17T15:42:26.202Z,99505.65
2019-05-17T15:44:58.027Z,99499.27
2019-05-17T15:47:52.345Z,99499.92
2019-05-17T15:50:25.904Z,99499.73
2019-05-17T15:53:03.220Z,99511.85
2019-05-17T15:55:41.235Z,99507.91
2019-05-17T15:58:29.552Z,99499.83
2019-05-17T16:01:44.096Z,99490.16
2019-05-17T16:05:17.262Z,99488.14
2019-05-17T16:08:38.194Z,99490.05
2019-05-17T16:13:48.810Z,99492.09
2019-05-17T16:14:55.114Z,99494.58
2019-05-17T16:17:40.826Z,99498.11
2019-05-17T16:20:29.602Z,99484.09
2019-05-17T16:23:32.501Z,99491.16
2019-05-17T16:27:09.800Z,99484.47
2019-05-17T16:30:04.661Z,99479.52
2019-05-17T16:33:15.891Z,99476.93
2019-05-17T16:36:40.370Z,99479.43
2019-05-17T16:40:55.799Z,99478.45
2019-05-17T16:43:36.419Z,99475.77
2019-05-17T16:46:42.949Z,99474.44
2019-05-17T16:53:19.201Z,99467.37
2019-05-17T16:56:04.537Z,99469.90
2019-05-17T16:59:19.974Z,99471.09
2019-05-17T17:01:55.220Z,99463.59
2019-05-17T17:05:50.630Z,99466.97
2019-05-17T17:09:12.993Z,99465.40
2019-05-17T17:12:25.350Z,99466.72
2019-05-17T17:15:59.216Z,99460.39
2019-05-17T17:19:03.166Z,99462.89
2019-05-17T17:21:35.590Z,99465.55
2019-05-17T17:24:06.387Z,99464.55
2019-05-17T17:26:36.801Z,99463.61
2019-05-17T17:29:07.262Z,99453.24
2019-05-17T17:31:44.716Z,99453.98
2019-05-17T17:34:41.294Z,99460.16
2019-05-17T17:37:12.166Z,99458.70
2019-05-17T17:39:53.307Z,99464.05
2019-05-17T17:42:23.150Z,99457.82
2019-05-17T17:44:55.073Z,99458.48
2019-05-17T17:47:35.332Z,99459.74
2019-05-17T17:50:09.140Z,99454.02
2019-05-17T17:52:42.580Z,99451.73
2019-05-17T17:55:14.246Z,99449.25
2019-05-17T17:57:48.300Z,99450.48
2019-05-17T18:00:33.364Z,99453.21
2019-05-17T18:07:31.226Z,99459.75
2019-05-17T18:11:12.661Z,99456.06
2019-05-17T18:14:27.686Z,99462.77
2019-05-17T18:18:02.810Z,99465.77
2019-05-17T18:21:28.908Z,99469.33
2019-05-17T18:25:24.302Z,99467.86
2019-05-17T18:26:37.684Z,99468.84
2019-05-17T18:30:07.502Z,99472.84
2019-05-17T18:33:27.684Z,99474.47
2019-05-17T18:37:09.149Z,99477.30
2019-05-17T18:40:02.166Z,99471.84
2019-05-17T18:43:27.827Z,99475.20
2019-05-17T18:49:22.467Z,99473.63
2019-05-17T18:52:28.150Z,99472.96
2019-05-17T18:55:26.751Z,99475.95
2019-05-17T18:58:55.492Z,99480.19
2019-05-17T19:01:14.622Z,99479.65
2019-05-17T19:04:01.941Z,99487.91
2019-05-17T19:06:50.522Z,99488.31
2019-05-17T19:10:15.445Z,99491.17
2019-05-17T19:13:08.793Z,99492.54
2019-05-17T19:15:58.549Z,99490.37
2019-05-17T19:18:47.379Z,99496.48
2019-05-17T19:21:38.866Z,99493.68
2019-05-17T19:25:48.793Z,99497.60
2019-05-17T19:33:35.907Z,99506.39
2019-05-17T19:35:41.711Z,99503.58
2019-05-17T19:41:29.721Z,99504.08
2019-05-17T19:50:24.102Z,99504.33
2019-05-17T20:01:28.366Z,99511.44
2019-05-17T20:03:42.185Z,99512.16
2019-05-17T20:07:36.923Z,99506.46
2019-05-17T20:10:04.335Z,99511.67
2019-05-17T20:13:51.749Z,99508.72
2019-05-17T20:16:36.297Z,99507.64
2019-05-17T20:20:11.623Z,99506.48
2019-05-17T20:24:47.624Z,99512.53
2019-05-17T20:27:16.951Z,99507.81
2019-05-17T20:30:03.037Z,99508.16
2019-05-17T20:33:27.820Z,99513.99
2019-05-17T20:37:43.691Z,99507.61
2019-05-17T20:43:28.591Z,99510.73
2019-05-17T20:46:20.056Z,99506.76
2019-05-17T20:49:20.623Z,99505.17
2019-05-17T20:52:25.144Z,99507.95
2019-05-17T20:55:56.120Z,99501.99
2019-05-17T20:58:48.783Z,99501.20
2019-05-17T21:01:32.031Z,99499.91
2019-05-17T21:04:13.159Z,99495.25
2019-05-17T21:07:37.743Z,99496.45
2019-05-17T21:09:53.721Z,99498.72
2019-05-17T21:12:26.229Z,99498.37
2019-05-17T21:15:23.702Z,99495.18
2019-05-17T21:17:54.933Z,99504.91
2019-05-17T21:21:24.267Z,99498.48
2019-05-17T21:24:17.402Z,99502.20
2019-05-17T21:27:20.319Z,99507.97
2019-05-17T21:30:32.658Z,99503.31
2019-05-17T21:34:09.700Z,99512.43
2019-05-17T21:36:51.954Z,99506.03
2019-05-17T21:39:30.108Z,99509.58
2019-05-17T21:42:03.670Z,99516.73
2019-05-17T21:44:40.035Z,99507.11
2019-05-17T21:47:13.076Z,99509.84
2019-05-17T21:49:43.747Z,99504.27
2019-05-17T21:52:19.450Z,99501.94
2019-05-17T21:54:52.380Z,99499.53
2019-05-17T21:58:08.263Z,99497.70
2019-05-17T22:01:34.993Z,99505.66
2019-05-17T22:04:22.647Z,99501.84
2019-05-17T22:07:10.919Z,99501.30
2019-05-17T22:10:23.370Z,99500.28
2019-05-17T22:13:24.566Z,99501.75
2019-05-17T22:20:58.511Z,99511.52
2019-05-17T22:23:43.340Z,99503.17
2019-05-17T22:36:42.054Z,99506.20
2019-05-17T22:39:47.944Z,99503.48
2019-05-17T22:43:14.575Z,99504.38
2019-05-17T22:50:57.651Z,99495.63
2019-05-17T22:54:40.393Z,99487.58
2019-05-17T23:00:07.986Z,99494.98
2019-05-17T23:03:35.366Z,99492.53
2019-05-17T23:06:39.130Z,99482.10
2019-05-17T23:09:51.730Z,99488.92
2019-05-17T23:12:27.373Z,99487.14
2019-05-17T23:15:17.977Z,99491.83
2019-05-17T23:21:13.730Z,99482.37
2019-05-17T23:24:05.201Z,99489.59
2019-05-17T23:27:10.713Z,99493.59
2019-05-17T23:29:43.163Z,99493.62
2019-05-17T23:32:18.250Z,99490.91
2019-05-17T23:34:48.601Z,99490.75
2019-05-17T23:37:19.439Z,99490.91
2019-05-17T23:39:49.794Z,99482.86
2019-05-17T23:42:22.253Z,99487.45
2019-05-17T23:44:52.755Z,99486.53
2019-05-17T23:47:24.439Z,99488.25
2019-05-17T23:49:54.836Z,99487.37
2019-05-17T23:56:51.397Z,99485.70
2019-05-17T23:56:53.376Z,99492.19
